Aérodrome :
LOGIN :

S'inscrire | Disclaimer

   EN    FR    IT 

 










Légende :    VFR   VFR Marginal   IFR   IFR Intensif   IFR Très Intensif
Visi : 
Plafond : 
>= 8 km
>= 3000ft
5 à 8 km
1000 à 3000 ft
1500m à 5 km
500 à 1000 ft
800 à 1500m
200 à 500 ft
< 800m
< 200 ft
Symboles :   Orages  Brouillard  Fortes neiges  Fortes précipitations  Vent > 20 kt
SIGMETs :   Divers  Orages  Givrage  Turbulence  Onde Orograph.  Cendres Volcan.







- Altitude de l'aérodrome : 200 ft


EBBL - Klein Brogel AB

DERNIER METAR :
  • 280025Z AUTO VRB02KT 9999 BKN033/// BKN085/// 04/M00 Q1015 BLU

METARs EXPIRÉS :
  • 272355Z AUTO VRB02KT 9999 SCT039/// BKN051/// BKN084/// 03/M00 Q1015 BLU
  • 272325Z AUTO 22003KT 9999 BKN037/// 03/M00 Q1016 BLU
  • 272255Z AUTO VRB01KT 9999 FEW039/// 02/M01 Q1016 BLU
  • 272225Z AUTO VRB02KT 9999 NCD 02/M01 Q1016 BLU
  • 272155Z AUTO VRB02KT 9999 NCD 03/M00 Q1016 BLU

TAF TAF EBBL
Valide du 27 à 19h jusqu'au 28 à 07h UTC


271541Z 2719/2807 25005KT 9999 SCT050 SCT220
BECMG 2722/2800 23003KT 9999 SCT020 BKN050
BECMG 2800/2802 22005KT 6000 -RA SCT008 BKN020
TEMPO 2804/2806 22008KT 3000 DZRA SCT008 BKN015
Pas de NOTAMs connus pour ce terrain.



MET'MAP, la Météo Aéronautique d'un coup d'oeil ! - Copyright ORBIFLY Décembre 2007 - Disclaimer

ORBIFLY MET'MAP TEAM :

Programmation & Développement : Alexandra Zaïnal
Conception & Développement : Baudouin d'Aumeries
Co-Programmation & Développement : Marc-Olivier Méhu
Soutien technique & logistique : Manuel Goepfert

Contact : metmap@orbifly.com




SOURCES & CREDITS :

   NOAA